sensor_id;sensor_type;location;lat;lon;timestamp;P1;durP1;ratioP1;P2;durP2;ratioP2
44706;SDS011;30433;45.596;8.408;2023-07-20T00:05:46;18.33;;;13.30;;
44706;SDS011;30433;45.596;8.408;2023-07-20T00:11:49;21.77;;;13.50;;
44706;SDS011;30433;45.596;8.408;2023-07-20T00:17:52;16.35;;;14.18;;
44706;SDS011;30433;45.596;8.408;2023-07-20T00:23:55;15.10;;;13.48;;
44706;SDS011;30433;45.596;8.408;2023-07-20T00:29:57;15.95;;;14.02;;
44706;SDS011;30433;45.596;8.408;2023-07-20T00:35:59;14.55;;;12.90;;
44706;SDS011;30433;45.596;8.408;2023-07-20T00:42:04;15.35;;;12.13;;
44706;SDS011;30433;45.596;8.408;2023-07-20T00:48:06;19.20;;;13.18;;
44706;SDS011;30433;45.596;8.408;2023-07-20T00:54:09;14.23;;;12.07;;
44706;SDS011;30433;45.596;8.408;2023-07-20T01:00:13;16.27;;;11.98;;
44706;SDS011;30433;45.596;8.408;2023-07-20T01:06:19;12.82;;;10.10;;
44706;SDS011;30433;45.596;8.408;2023-07-20T01:12:33;12.90;;;10.77;;
44706;SDS011;30433;45.596;8.408;2023-07-20T01:18:43;12.68;;;9.38;;
44706;SDS011;30433;45.596;8.408;2023-07-20T01:24:51;16.50;;;9.43;;
44706;SDS011;30433;45.596;8.408;2023-07-20T01:31:18;10.90;;;7.78;;
44706;SDS011;30433;45.596;8.408;2023-07-20T01:37:23;12.38;;;8.10;;
44706;SDS011;30433;45.596;8.408;2023-07-20T01:43:29;9.25;;;7.70;;
44706;SDS011;30433;45.596;8.408;2023-07-20T01:49:33;10.18;;;7.88;;
44706;SDS011;30433;45.596;8.408;2023-07-20T01:55:35;10.55;;;8.38;;
44706;SDS011;30433;45.596;8.408;2023-07-20T02:01:37;11.55;;;7.80;;
44706;SDS011;30433;45.596;8.408;2023-07-20T02:07:40;12.43;;;8.48;;
44706;SDS011;30433;45.596;8.408;2023-07-20T02:13:43;12.90;;;8.02;;
44706;SDS011;30433;45.596;8.408;2023-07-20T02:19:45;9.88;;;8.38;;
44706;SDS011;30433;45.596;8.408;2023-07-20T02:25:51;9.77;;;7.70;;
44706;SDS011;30433;45.596;8.408;2023-07-20T02:31:53;12.35;;;8.55;;
44706;SDS011;30433;45.596;8.408;2023-07-20T02:43:58;10.38;;;7.72;;
44706;SDS011;30433;45.596;8.408;2023-07-20T02:50:01;14.00;;;8.05;;
44706;SDS011;30433;45.596;8.408;2023-07-20T02:56:03;12.43;;;8.52;;
44706;SDS011;30433;45.596;8.408;2023-07-20T03:02:07;12.13;;;7.95;;
44706;SDS011;30433;45.596;8.408;2023-07-20T03:08:10;11.73;;;8.02;;
44706;SDS011;30433;45.596;8.408;2023-07-20T03:14:13;9.93;;;7.75;;
44706;SDS011;30433;45.596;8.408;2023-07-20T03:20:16;12.90;;;8.02;;
44706;SDS011;30433;45.596;8.408;2023-07-20T03:26:19;11.95;;;8.02;;
44706;SDS011;30433;45.596;8.408;2023-07-20T03:32:21;13.32;;;8.25;;
44706;SDS011;30433;45.596;8.408;2023-07-20T03:44:27;10.35;;;7.82;;
44706;SDS011;30433;45.596;8.408;2023-07-20T03:50:29;9.50;;;7.65;;
44706;SDS011;30433;45.596;8.408;2023-07-20T04:02:36;13.10;;;7.82;;
44706;SDS011;30433;45.596;8.408;2023-07-20T04:08:38;10.23;;;7.30;;
44706;SDS011;30433;45.596;8.408;2023-07-20T04:20:43;9.50;;;7.60;;
44706;SDS011;30433;45.596;8.408;2023-07-20T04:26:46;10.85;;;7.63;;
44706;SDS011;30433;45.596;8.408;2023-07-20T04:38:51;12.63;;;7.88;;
44706;SDS011;30433;45.596;8.408;2023-07-20T04:50:56;12.40;;;6.43;;
44706;SDS011;30433;45.596;8.408;2023-07-20T04:56:59;8.55;;;6.30;;
44706;SDS011;30433;45.596;8.408;2023-07-20T05:03:01;10.30;;;6.32;;
44706;SDS011;30433;45.596;8.408;2023-07-20T05:09:07;15.10;;;6.15;;
44706;SDS011;30433;45.596;8.408;2023-07-20T05:15:10;12.85;;;5.80;;
44706;SDS011;30433;45.596;8.408;2023-07-20T05:21:13;8.57;;;6.22;;
44706;SDS011;30433;45.596;8.408;2023-07-20T05:27:16;8.65;;;6.20;;
44706;SDS011;30433;45.596;8.408;2023-07-20T05:33:18;7.65;;;5.75;;
44706;SDS011;30433;45.596;8.408;2023-07-20T05:39:21;10.48;;;5.38;;
44706;SDS011;30433;45.596;8.408;2023-07-20T05:45:24;11.65;;;5.78;;
44706;SDS011;30433;45.596;8.408;2023-07-20T05:51:27;11.13;;;6.05;;
44706;SDS011;30433;45.596;8.408;2023-07-20T05:57:29;14.63;;;5.88;;
44706;SDS011;30433;45.596;8.408;2023-07-20T06:03:32;11.07;;;6.35;;
44706;SDS011;30433;45.596;8.408;2023-07-20T06:09:35;10.93;;;5.97;;
44706;SDS011;30433;45.596;8.408;2023-07-20T06:15:37;11.10;;;5.82;;
44706;SDS011;30433;45.596;8.408;2023-07-20T06:21:42;8.73;;;5.80;;
44706;SDS011;30433;45.596;8.408;2023-07-20T06:27:45;10.20;;;5.75;;
44706;SDS011;30433;45.596;8.408;2023-07-20T06:33:47;9.88;;;5.55;;
44706;SDS011;30433;45.596;8.408;2023-07-20T06:39:50;10.15;;;6.18;;
44706;SDS011;30433;45.596;8.408;2023-07-20T06:45:53;8.30;;;5.28;;
44706;SDS011;30433;45.596;8.408;2023-07-20T06:51:55;10.15;;;5.72;;
44706;SDS011;30433;45.596;8.408;2023-07-20T06:57:59;8.38;;;5.70;;
44706;SDS011;30433;45.596;8.408;2023-07-20T07:04:01;8.30;;;5.40;;
44706;SDS011;30433;45.596;8.408;2023-07-20T07:10:04;12.80;;;5.60;;
44706;SDS011;30433;45.596;8.408;2023-07-20T07:16:09;8.95;;;5.40;;
44706;SDS011;30433;45.596;8.408;2023-07-20T07:22:11;7.97;;;5.50;;
44706;SDS011;30433;45.596;8.408;2023-07-20T07:28:13;9.27;;;5.07;;
44706;SDS011;30433;45.596;8.408;2023-07-20T07:34:17;9.52;;;5.20;;
44706;SDS011;30433;45.596;8.408;2023-07-20T07:40:19;6.63;;;4.80;;
44706;SDS011;30433;45.596;8.408;2023-07-20T07:46:21;14.77;;;6.55;;
44706;SDS011;30433;45.596;8.408;2023-07-20T07:52:25;6.97;;;4.05;;
44706;SDS011;30433;45.596;8.408;2023-07-20T07:58:27;8.73;;;4.72;;
44706;SDS011;30433;45.596;8.408;2023-07-20T08:04:29;11.50;;;5.18;;
44706;SDS011;30433;45.596;8.408;2023-07-20T08:10:33;9.27;;;4.43;;
44706;SDS011;30433;45.596;8.408;2023-07-20T08:23:05;9.20;;;4.85;;
44706;SDS011;30433;45.596;8.408;2023-07-20T08:29:10;9.35;;;4.60;;
44706;SDS011;30433;45.596;8.408;2023-07-20T08:35:14;9.82;;;4.35;;
44706;SDS011;30433;45.596;8.408;2023-07-20T08:41:16;17.95;;;4.78;;
44706;SDS011;30433;45.596;8.408;2023-07-20T08:47:20;11.52;;;4.47;;
44706;SDS011;30433;45.596;8.408;2023-07-20T08:53:23;9.50;;;4.20;;
44706;SDS011;30433;45.596;8.408;2023-07-20T08:59:25;9.45;;;5.20;;
44706;SDS011;30433;45.596;8.408;2023-07-20T09:05:31;5.72;;;3.85;;
44706;SDS011;30433;45.596;8.408;2023-07-20T09:11:35;9.55;;;4.60;;
44706;SDS011;30433;45.596;8.408;2023-07-20T09:17:37;6.72;;;4.60;;
44706;SDS011;30433;45.596;8.408;2023-07-20T09:23:41;10.77;;;4.50;;
44706;SDS011;30433;45.596;8.408;2023-07-20T09:29:49;9.70;;;4.82;;
44706;SDS011;30433;45.596;8.408;2023-07-20T09:35:52;11.43;;;5.63;;
44706;SDS011;30433;45.596;8.408;2023-07-20T09:41:56;9.07;;;4.97;;
44706;SDS011;30433;45.596;8.408;2023-07-20T09:48:05;9.07;;;4.47;;
44706;SDS011;30433;45.596;8.408;2023-07-20T09:54:08;8.30;;;4.72;;
44706;SDS011;30433;45.596;8.408;2023-07-20T10:00:14;8.90;;;5.30;;
44706;SDS011;30433;45.596;8.408;2023-07-20T10:06:19;13.05;;;5.40;;
44706;SDS011;30433;45.596;8.408;2023-07-20T10:12:24;9.38;;;5.28;;
44706;SDS011;30433;45.596;8.408;2023-07-20T10:18:29;8.68;;;4.63;;
44706;SDS011;30433;45.596;8.408;2023-07-20T10:24:36;7.80;;;4.55;;
44706;SDS011;30433;45.596;8.408;2023-07-20T10:30:40;8.23;;;4.47;;
44706;SDS011;30433;45.596;8.408;2023-07-20T10:36:45;9.98;;;5.03;;
44706;SDS011;30433;45.596;8.408;2023-07-20T10:42:55;10.25;;;4.53;;
44706;SDS011;30433;45.596;8.408;2023-07-20T10:48:59;7.55;;;4.10;;
44706;SDS011;30433;45.596;8.408;2023-07-20T10:55:11;13.30;;;4.72;;
44706;SDS011;30433;45.596;8.408;2023-07-20T11:01:16;6.78;;;4.15;;
44706;SDS011;30433;45.596;8.408;2023-07-20T11:07:36;7.70;;;4.32;;
44706;SDS011;30433;45.596;8.408;2023-07-20T11:13:59;7.63;;;4.10;;
44706;SDS011;30433;45.596;8.408;2023-07-20T11:20:02;6.45;;;4.53;;
44706;SDS011;30433;45.596;8.408;2023-07-20T11:26:06;8.65;;;3.67;;
44706;SDS011;30433;45.596;8.408;2023-07-20T11:32:09;6.55;;;3.42;;
44706;SDS011;30433;45.596;8.408;2023-07-20T11:38:12;5.82;;;4.07;;
44706;SDS011;30433;45.596;8.408;2023-07-20T11:44:15;7.57;;;4.22;;
44706;SDS011;30433;45.596;8.408;2023-07-20T11:50:19;6.07;;;4.00;;
44706;SDS011;30433;45.596;8.408;2023-07-20T11:56:22;6.28;;;3.90;;
44706;SDS011;30433;45.596;8.408;2023-07-20T12:02:27;10.02;;;4.32;;
44706;SDS011;30433;45.596;8.408;2023-07-20T12:08:30;7.22;;;3.80;;
44706;SDS011;30433;45.596;8.408;2023-07-20T12:14:33;4.45;;;3.50;;
44706;SDS011;30433;45.596;8.408;2023-07-20T12:20:36;6.07;;;3.35;;
44706;SDS011;30433;45.596;8.408;2023-07-20T12:26:41;8.30;;;3.80;;
44706;SDS011;30433;45.596;8.408;2023-07-20T12:32:43;7.88;;;4.28;;
44706;SDS011;30433;45.596;8.408;2023-07-20T12:38:46;7.45;;;3.67;;
44706;SDS011;30433;45.596;8.408;2023-07-20T12:44:50;6.25;;;3.72;;
44706;SDS011;30433;45.596;8.408;2023-07-20T12:50:52;6.75;;;3.80;;
44706;SDS011;30433;45.596;8.408;2023-07-20T12:56:55;5.63;;;4.20;;
44706;SDS011;30433;45.596;8.408;2023-07-20T13:02:58;8.85;;;4.57;;
44706;SDS011;30433;45.596;8.408;2023-07-20T13:09:04;7.38;;;3.90;;
44706;SDS011;30433;45.596;8.408;2023-07-20T13:15:07;7.25;;;4.25;;
44706;SDS011;30433;45.596;8.408;2023-07-20T13:21:11;6.72;;;4.47;;
44706;SDS011;30433;45.596;8.408;2023-07-20T13:27:13;6.68;;;4.13;;
44706;SDS011;30433;45.596;8.408;2023-07-20T13:33:16;8.23;;;4.40;;
44706;SDS011;30433;45.596;8.408;2023-07-20T13:39:19;8.02;;;3.92;;
44706;SDS011;30433;45.596;8.408;2023-07-20T13:45:24;5.40;;;3.75;;
44706;SDS011;30433;45.596;8.408;2023-07-20T13:51:26;6.03;;;4.35;;
44706;SDS011;30433;45.596;8.408;2023-07-20T13:57:29;7.28;;;3.80;;
44706;SDS011;30433;45.596;8.408;2023-07-20T14:03:32;7.88;;;3.70;;
44706;SDS011;30433;45.596;8.408;2023-07-20T14:09:34;9.57;;;4.30;;
44706;SDS011;30433;45.596;8.408;2023-07-20T14:15:38;8.50;;;3.97;;
44706;SDS011;30433;45.596;8.408;2023-07-20T14:21:40;6.70;;;3.83;;
44706;SDS011;30433;45.596;8.408;2023-07-20T14:27:42;8.65;;;3.60;;
44706;SDS011;30433;45.596;8.408;2023-07-20T14:33:46;7.72;;;4.30;;
44706;SDS011;30433;45.596;8.408;2023-07-20T14:39:48;9.75;;;4.93;;
44706;SDS011;30433;45.596;8.408;2023-07-20T14:45:50;7.60;;;5.20;;
44706;SDS011;30433;45.596;8.408;2023-07-20T14:51:54;9.57;;;4.65;;
44706;SDS011;30433;45.596;8.408;2023-07-20T14:57:56;12.10;;;4.68;;
44706;SDS011;30433;45.596;8.408;2023-07-20T15:03:58;8.40;;;4.38;;
44706;SDS011;30433;45.596;8.408;2023-07-20T15:10:02;7.13;;;4.03;;
44706;SDS011;30433;45.596;8.408;2023-07-20T15:16:05;7.97;;;4.15;;
44706;SDS011;30433;45.596;8.408;2023-07-20T15:22:07;6.50;;;4.50;;
44706;SDS011;30433;45.596;8.408;2023-07-20T15:28:10;7.70;;;4.28;;
44706;SDS011;30433;45.596;8.408;2023-07-20T15:34:12;5.95;;;4.10;;
44706;SDS011;30433;45.596;8.408;2023-07-20T15:40:15;6.03;;;3.88;;
44706;SDS011;30433;45.596;8.408;2023-07-20T15:52:48;10.02;;;4.82;;
44706;SDS011;30433;45.596;8.408;2023-07-20T15:58:50;20.98;;;7.15;;
44706;SDS011;30433;45.596;8.408;2023-07-20T16:04:54;8.00;;;3.60;;
44706;SDS011;30433;45.596;8.408;2023-07-20T16:10:56;6.93;;;3.65;;
44706;SDS011;30433;45.596;8.408;2023-07-20T16:16:59;6.68;;;3.50;;
44706;SDS011;30433;45.596;8.408;2023-07-20T16:23:03;7.10;;;4.28;;
44706;SDS011;30433;45.596;8.408;2023-07-20T16:29:06;6.45;;;4.47;;
44706;SDS011;30433;45.596;8.408;2023-07-20T16:35:08;6.93;;;3.80;;
44706;SDS011;30433;45.596;8.408;2023-07-20T16:41:12;7.82;;;4.30;;
44706;SDS011;30433;45.596;8.408;2023-07-20T16:47:14;5.50;;;3.58;;
44706;SDS011;30433;45.596;8.408;2023-07-20T17:00:15;6.47;;;3.83;;
44706;SDS011;30433;45.596;8.408;2023-07-20T17:06:18;6.70;;;3.40;;
44706;SDS011;30433;45.596;8.408;2023-07-20T17:12:21;7.25;;;4.78;;
44706;SDS011;30433;45.596;8.408;2023-07-20T17:18:25;8.63;;;4.35;;
44706;SDS011;30433;45.596;8.408;2023-07-20T17:24:27;7.70;;;4.22;;
44706;SDS011;30433;45.596;8.408;2023-07-20T17:30:30;6.78;;;4.13;;
44706;SDS011;30433;45.596;8.408;2023-07-20T17:36:33;6.78;;;4.00;;
44706;SDS011;30433;45.596;8.408;2023-07-20T17:42:36;5.78;;;4.05;;
44706;SDS011;30433;45.596;8.408;2023-07-20T17:48:39;8.68;;;4.45;;
44706;SDS011;30433;45.596;8.408;2023-07-20T17:54:42;6.80;;;3.88;;
44706;SDS011;30433;45.596;8.408;2023-07-20T18:00:44;8.52;;;4.60;;
44706;SDS011;30433;45.596;8.408;2023-07-20T18:06:47;8.02;;;4.57;;
44706;SDS011;30433;45.596;8.408;2023-07-20T18:12:50;6.30;;;4.07;;
44706;SDS011;30433;45.596;8.408;2023-07-20T18:18:52;6.90;;;4.10;;
44706;SDS011;30433;45.596;8.408;2023-07-20T18:24:56;8.48;;;4.18;;
44706;SDS011;30433;45.596;8.408;2023-07-20T18:31:04;7.97;;;4.13;;
44706;SDS011;30433;45.596;8.408;2023-07-20T18:37:08;7.53;;;4.93;;
44706;SDS011;30433;45.596;8.408;2023-07-20T18:43:11;9.60;;;4.80;;
44706;SDS011;30433;45.596;8.408;2023-07-20T18:49:15;6.18;;;4.28;;
44706;SDS011;30433;45.596;8.408;2023-07-20T18:55:17;5.88;;;4.55;;
44706;SDS011;30433;45.596;8.408;2023-07-20T19:01:20;8.20;;;4.40;;
44706;SDS011;30433;45.596;8.408;2023-07-20T19:07:24;9.32;;;4.50;;
44706;SDS011;30433;45.596;8.408;2023-07-20T19:13:26;7.38;;;4.32;;
44706;SDS011;30433;45.596;8.408;2023-07-20T19:19:29;6.55;;;4.68;;
44706;SDS011;30433;45.596;8.408;2023-07-20T19:25:33;9.45;;;4.60;;
44706;SDS011;30433;45.596;8.408;2023-07-20T19:31:35;16.75;;;4.75;;
44706;SDS011;30433;45.596;8.408;2023-07-20T19:37:37;6.65;;;4.10;;
44706;SDS011;30433;45.596;8.408;2023-07-20T19:43:41;6.90;;;4.60;;
44706;SDS011;30433;45.596;8.408;2023-07-20T19:49:44;9.13;;;5.00;;
44706;SDS011;30433;45.596;8.408;2023-07-20T19:55:47;9.30;;;4.93;;
44706;SDS011;30433;45.596;8.408;2023-07-20T20:01:53;6.18;;;4.60;;
44706;SDS011;30433;45.596;8.408;2023-07-20T20:07:57;6.72;;;4.80;;
44706;SDS011;30433;45.596;8.408;2023-07-20T20:13:59;10.32;;;5.28;;
44706;SDS011;30433;45.596;8.408;2023-07-20T20:20:04;9.13;;;4.88;;
44706;SDS011;30433;45.596;8.408;2023-07-20T20:26:08;9.30;;;5.18;;
44706;SDS011;30433;45.596;8.408;2023-07-20T20:32:10;7.20;;;4.38;;
44706;SDS011;30433;45.596;8.408;2023-07-20T20:38:15;7.32;;;4.85;;
44706;SDS011;30433;45.596;8.408;2023-07-20T20:44:17;7.82;;;3.90;;
44706;SDS011;30433;45.596;8.408;2023-07-20T20:50:22;5.30;;;4.47;;
44706;SDS011;30433;45.596;8.408;2023-07-20T20:56:26;6.88;;;4.30;;
44706;SDS011;30433;45.596;8.408;2023-07-20T21:02:29;6.78;;;4.82;;
44706;SDS011;30433;45.596;8.408;2023-07-20T21:08:32;10.98;;;5.30;;
44706;SDS011;30433;45.596;8.408;2023-07-20T21:14:35;6.65;;;4.72;;
44706;SDS011;30433;45.596;8.408;2023-07-20T21:20:38;6.53;;;4.65;;
44706;SDS011;30433;45.596;8.408;2023-07-20T21:26:40;8.00;;;4.75;;
44706;SDS011;30433;45.596;8.408;2023-07-20T21:32:44;8.75;;;5.15;;
44706;SDS011;30433;45.596;8.408;2023-07-20T21:38:47;7.32;;;5.30;;
44706;SDS011;30433;45.596;8.408;2023-07-20T21:44:49;7.15;;;4.97;;
44706;SDS011;30433;45.596;8.408;2023-07-20T21:50:53;12.52;;;5.65;;
44706;SDS011;30433;45.596;8.408;2023-07-20T21:56:56;6.90;;;5.40;;
44706;SDS011;30433;45.596;8.408;2023-07-20T22:02:58;8.35;;;5.45;;
44706;SDS011;30433;45.596;8.408;2023-07-20T22:09:02;9.32;;;5.70;;
44706;SDS011;30433;45.596;8.408;2023-07-20T22:15:05;9.60;;;5.55;;
44706;SDS011;30433;45.596;8.408;2023-07-20T22:21:09;8.10;;;4.95;;
44706;SDS011;30433;45.596;8.408;2023-07-20T22:27:13;7.53;;;5.30;;
44706;SDS011;30433;45.596;8.408;2023-07-20T22:33:15;7.57;;;5.53;;
44706;SDS011;30433;45.596;8.408;2023-07-20T22:39:18;9.52;;;5.75;;
44706;SDS011;30433;45.596;8.408;2023-07-20T22:45:21;6.28;;;5.43;;
44706;SDS011;30433;45.596;8.408;2023-07-20T22:51:24;7.75;;;5.80;;
44706;SDS011;30433;45.596;8.408;2023-07-20T22:57:26;10.75;;;5.68;;
44706;SDS011;30433;45.596;8.408;2023-07-20T23:03:30;6.72;;;4.88;;
44706;SDS011;30433;45.596;8.408;2023-07-20T23:09:32;7.25;;;4.57;;
44706;SDS011;30433;45.596;8.408;2023-07-20T23:15:34;6.00;;;5.40;;
44706;SDS011;30433;45.596;8.408;2023-07-20T23:21:40;8.38;;;5.32;;
44706;SDS011;30433;45.596;8.408;2023-07-20T23:27:43;7.55;;;5.38;;
44706;SDS011;30433;45.596;8.408;2023-07-20T23:33:46;7.88;;;5.28;;
44706;SDS011;30433;45.596;8.408;2023-07-20T23:39:50;8.68;;;5.50;;
44706;SDS011;30433;45.596;8.408;2023-07-20T23:45:52;7.63;;;5.03;;
44706;SDS011;30433;45.596;8.408;2023-07-20T23:51:55;7.07;;;5.60;;
44706;SDS011;30433;45.596;8.408;2023-07-20T23:57:58;10.75;;;5.88;;
